createdAt,value
2023-04-02T00:02:22.024Z,6.85
2023-04-02T00:08:39.125Z,7.53
2023-04-02T00:14:46.696Z,6.95
2023-04-02T00:21:00.721Z,4.55
2023-04-02T00:27:03.579Z,3.30
2023-04-02T00:33:05.902Z,2.92
2023-04-02T00:39:16.144Z,2.40
2023-04-02T00:45:33.558Z,3.20
2023-04-02T00:51:44.787Z,2.33
2023-04-02T00:57:49.175Z,2.75
2023-04-02T01:04:01.988Z,2.42
2023-04-02T01:10:13.592Z,2.70
2023-04-02T01:16:31.521Z,2.95
2023-04-02T01:22:35.447Z,3.22
2023-04-02T01:28:51.961Z,1.88
2023-04-02T01:34:54.782Z,2.60
2023-04-02T01:41:08.277Z,2.20
2023-04-02T01:47:16.256Z,2.65
2023-04-02T01:53:21.164Z,2.03
2023-04-02T01:59:24.450Z,2.85
2023-04-02T02:05:33.144Z,2.85
2023-04-02T02:11:36.828Z,2.50
2023-04-02T02:17:39.673Z,2.47
2023-04-02T02:23:42.330Z,2.65
2023-04-02T02:29:46.723Z,3.10
2023-04-02T02:35:52.396Z,3.25
2023-04-02T02:42:25.267Z,3.20
2023-04-02T02:48:37.053Z,3.85
2023-04-02T02:54:48.891Z,4.65
2023-04-02T03:00:51.344Z,3.80
2023-04-02T03:06:56.181Z,4.65
2023-04-02T03:13:22.338Z,4.32
2023-04-02T03:19:36.544Z,4.28
2023-04-02T03:25:44.212Z,4.53
2023-04-02T03:31:54.353Z,4.15
2023-04-02T03:38:13.188Z,3.63
2023-04-02T03:44:26.536Z,4.65
2023-04-02T03:50:37.931Z,3.75
2023-04-02T03:56:40.670Z,3.15
2023-04-02T04:02:55.113Z,3.83
2023-04-02T04:09:10.535Z,3.75
2023-04-02T04:15:16.776Z,3.75
2023-04-02T04:21:37.922Z,3.47
2023-04-02T04:28:16.777Z,4.50
2023-04-02T04:34:47.004Z,3.38
2023-04-02T04:40:59.975Z,2.97
2023-04-02T04:47:35.256Z,3.55
2023-04-02T04:53:50.099Z,2.90
2023-04-02T05:00:12.967Z,3.50
2023-04-02T05:06:38.782Z,3.10
2023-04-02T05:12:44.353Z,3.30
2023-04-02T05:19:09.443Z,3.30
2023-04-02T05:25:29.722Z,3.40
2023-04-02T05:31:47.016Z,3.30
2023-04-02T05:37:49.974Z,3.60
2023-04-02T05:44:29.656Z,4.53
2023-04-02T05:50:37.877Z,3.72
2023-04-02T05:56:48.132Z,3.38
2023-04-02T06:03:07.770Z,3.72
2023-04-02T06:09:21.644Z,3.53
2023-04-02T06:15:25.765Z,3.22
2023-04-02T06:21:32.998Z,3.35
2023-04-02T06:27:35.868Z,3.10
2023-04-02T06:33:38.796Z,3.08
2023-04-02T06:39:42.345Z,2.60
2023-04-02T06:45:49.882Z,2.88
2023-04-02T06:52:28.764Z,2.50
2023-04-02T06:58:32.188Z,2.60
2023-04-02T07:04:35.330Z,2.33
2023-04-02T07:10:38.011Z,2.45
2023-04-02T07:16:41.901Z,2.10
2023-04-02T07:22:44.306Z,2.55
2023-04-02T07:28:46.911Z,2.65
2023-04-02T07:40:51.563Z,2.30
2023-04-02T07:46:56.897Z,2.65
2023-04-02T07:52:59.195Z,2.65
2023-04-02T07:59:01.637Z,2.22
2023-04-02T08:05:03.926Z,2.70
2023-04-02T08:11:06.932Z,3.10
2023-04-02T08:17:09.365Z,2.78
2023-04-02T08:23:17.613Z,3.30
2023-04-02T08:29:20.389Z,3.15
2023-04-02T08:41:32.469Z,4.88
2023-04-02T08:47:39.819Z,4.13
2023-04-02T08:53:42.554Z,4.50
2023-04-02T08:59:45.266Z,4.75
2023-04-02T09:11:55.843Z,5.17
2023-04-02T09:18:05.418Z,4.63
2023-04-02T09:24:13.512Z,5.00
2023-04-02T09:30:30.033Z,5.63
2023-04-02T09:36:37.994Z,5.43
2023-04-02T09:42:41.153Z,5.05
2023-04-02T09:48:54.870Z,6.00
2023-04-02T09:55:20.553Z,5.72
2023-04-02T10:01:45.155Z,6.82
2023-04-02T10:07:53.798Z,5.95
2023-04-02T10:14:21.979Z,5.82
2023-04-02T10:20:30.465Z,5.22
2023-04-02T10:26:35.704Z,6.68
2023-04-02T10:32:44.734Z,7.28
2023-04-02T10:38:53.182Z,8.52
2023-04-02T10:45:56.642Z,8.20
2023-04-02T10:52:00.252Z,9.20
2023-04-02T10:58:08.504Z,13.35
2023-04-02T11:04:30.108Z,5.85
2023-04-02T11:10:35.955Z,10.95
2023-04-02T11:16:42.476Z,32.50
2023-04-02T11:23:06.075Z,8.50
2023-04-02T11:29:20.401Z,7.47
2023-04-02T11:35:31.693Z,6.93
2023-04-02T11:41:56.607Z,5.90
2023-04-02T11:48:01.622Z,6.53
2023-04-02T11:54:04.845Z,6.28
2023-04-02T12:00:55.032Z,4.88
2023-04-02T12:07:11.574Z,7.93
2023-04-02T12:13:42.925Z,5.35
2023-04-02T12:19:51.656Z,4.25
2023-04-02T12:25:58.670Z,4.20
2023-04-02T12:32:01.388Z,4.75
2023-04-02T12:38:03.718Z,2.97
2023-04-02T12:44:28.058Z,4.07
2023-04-02T12:50:30.614Z,2.58
2023-04-02T12:56:32.860Z,2.72
2023-04-02T13:08:47.467Z,2.90
2023-04-02T13:20:57.754Z,3.17
2023-04-02T13:27:02.628Z,3.75
2023-04-02T13:33:05.146Z,3.83
2023-04-02T13:39:07.948Z,1.88
2023-04-02T13:45:39.550Z,1.33
2023-04-02T13:51:47.657Z,2.85
2023-04-02T13:57:50.800Z,3.83
2023-04-02T14:03:55.051Z,4.00
2023-04-02T14:10:23.052Z,2.47
2023-04-02T14:16:47.163Z,2.33
2023-04-02T14:23:01.013Z,1.80
2023-04-02T14:29:32.076Z,2.50
2023-04-02T14:35:42.409Z,2.00
2023-04-02T14:41:44.750Z,2.03
2023-04-02T14:48:00.008Z,3.33
2023-04-02T14:54:09.114Z,2.80
2023-04-02T15:00:24.524Z,4.28
2023-04-02T15:06:53.036Z,4.05
2023-04-02T15:12:57.648Z,4.68
2023-04-02T15:19:01.777Z,5.40
2023-04-02T15:25:50.341Z,5.63
2023-04-02T15:31:58.323Z,4.85
2023-04-02T15:38:15.938Z,3.95
2023-04-02T15:44:18.400Z,4.10
2023-04-02T15:50:51.184Z,3.40
2023-04-02T15:57:16.872Z,4.18
2023-04-02T16:03:34.385Z,3.70
2023-04-02T16:09:55.825Z,2.97
2023-04-02T16:16:19.500Z,4.75
2023-04-02T16:22:27.149Z,5.05
2023-04-02T16:29:06.832Z,4.40
2023-04-02T16:41:55.969Z,2.85
2023-04-02T16:48:06.541Z,3.92
2023-04-02T16:54:27.936Z,2.58
2023-04-02T17:00:39.138Z,3.15
2023-04-02T17:06:48.426Z,3.78
2023-04-02T17:13:14.475Z,5.47
2023-04-02T17:19:17.904Z,6.82
2023-04-02T17:25:26.158Z,5.75
2023-04-02T17:31:34.450Z,6.03
2023-04-02T17:37:47.072Z,4.07
2023-04-02T17:43:56.569Z,4.17
2023-04-02T17:50:11.342Z,9.52
2023-04-02T17:56:27.003Z,8.10
2023-04-02T18:02:47.680Z,7.00
2023-04-02T18:09:07.911Z,8.27
2023-04-02T18:15:18.790Z,25.83
2023-04-02T18:21:40.865Z,8.68
2023-04-02T18:28:10.237Z,8.60
2023-04-02T18:34:33.708Z,6.75
2023-04-02T18:46:57.119Z,7.45
2023-04-02T18:53:01.795Z,6.68
2023-04-02T18:59:19.150Z,8.38
2023-04-02T19:05:40.918Z,8.38
2023-04-02T19:11:43.214Z,8.82
2023-04-02T19:18:05.427Z,9.45
2023-04-02T19:24:14.002Z,10.18
2023-04-02T19:31:03.504Z,8.95
2023-04-02T19:37:18.245Z,10.18
2023-04-02T19:43:20.536Z,12.52
2023-04-02T19:49:35.080Z,12.43
2023-04-02T19:55:38.025Z,13.43
2023-04-02T20:01:41.202Z,14.25
2023-04-02T20:13:45.873Z,15.05
2023-04-02T20:19:48.132Z,15.52
2023-04-02T20:25:55.489Z,15.75
2023-04-02T20:31:57.937Z,16.23
2023-04-02T20:38:00.512Z,17.73
2023-04-02T20:50:06.069Z,16.65
2023-04-02T21:02:18.392Z,17.85
2023-04-02T21:08:21.655Z,17.73
2023-04-02T21:14:24.616Z,16.85
2023-04-02T21:20:27.460Z,16.80
2023-04-02T21:26:33.346Z,16.85
2023-04-02T21:32:36.752Z,14.38
2023-04-02T21:38:43.722Z,15.13
2023-04-02T21:44:46.324Z,14.05
2023-04-02T21:50:49.006Z,14.77
2023-04-02T22:02:54.332Z,13.90
2023-04-02T22:09:02.091Z,13.48
2023-04-02T22:15:04.919Z,14.13
2023-04-02T22:21:08.087Z,13.65
2023-04-02T22:27:10.458Z,13.50
2023-04-02T22:33:13.151Z,14.93
2023-04-02T22:45:21.234Z,16.00
2023-04-02T22:51:25.061Z,19.92
2023-04-02T22:57:27.891Z,18.20
2023-04-02T23:03:30.168Z,18.77
2023-04-02T23:09:32.428Z,18.63
2023-04-02T23:15:34.930Z,15.82
2023-04-02T23:21:37.227Z,13.75
2023-04-02T23:27:39.632Z,12.30
2023-04-02T23:33:42.160Z,12.52
2023-04-02T23:39:44.375Z,14.60
2023-04-02T23:45:50.836Z,14.88
2023-04-02T23:51:53.351Z,14.10
2023-04-02T23:57:55.768Z,17.23
